createdAt,value
2023-03-26T00:01:23.823Z,9.08
2023-03-26T00:03:54.902Z,9.09
2023-03-26T00:06:36.787Z,9.09
2023-03-26T00:09:06.278Z,9.13
2023-03-26T00:11:33.511Z,9.12
2023-03-26T00:14:00.199Z,9.17
2023-03-26T00:16:30.252Z,9.20
2023-03-26T00:18:57.877Z,9.22
2023-03-26T00:21:27.849Z,9.25
2023-03-26T00:23:56.978Z,9.30
2023-03-26T00:26:24.126Z,9.31
2023-03-26T00:28:50.980Z,9.36
2023-03-26T00:31:18.428Z,9.40
2023-03-26T00:33:45.601Z,9.38
2023-03-26T00:36:15.384Z,9.40
2023-03-26T00:38:43.100Z,9.43
2023-03-26T00:41:22.858Z,9.47
2023-03-26T00:43:52.330Z,9.48
2023-03-26T00:46:19.636Z,9.39
2023-03-26T00:48:46.611Z,9.43
2023-03-26T00:51:16.348Z,9.42
2023-03-26T00:53:45.371Z,9.38
2023-03-26T00:56:12.677Z,9.32
2023-03-26T00:58:39.815Z,9.33
2023-03-26T01:01:10.484Z,9.23
2023-03-26T01:03:38.640Z,9.33
2023-03-26T01:06:28.086Z,9.34
2023-03-26T01:09:00.184Z,9.31
2023-03-26T01:11:30.172Z,9.26
2023-03-26T01:14:01.038Z,9.28
2023-03-26T01:16:37.370Z,9.26
2023-03-26T01:19:14.059Z,9.26
2023-03-26T01:21:41.032Z,9.22
2023-03-26T01:24:10.029Z,9.22
2023-03-26T01:27:27.372Z,9.14
2023-03-26T01:30:20.121Z,9.11
2023-03-26T01:33:05.588Z,9.08
2023-03-26T01:35:51.317Z,9.04
2023-03-26T01:38:46.985Z,9.06
2023-03-26T01:41:32.219Z,9.09
2023-03-26T01:44:35.742Z,9.11
2023-03-26T01:47:04.614Z,9.12
2023-03-26T01:49:31.929Z,9.08
2023-03-26T01:51:59.015Z,9.17
2023-03-26T01:54:31.500Z,9.17
2023-03-26T01:57:10.647Z,9.20
2023-03-26T01:59:49.381Z,9.22
2023-03-26T02:02:46.528Z,9.20
2023-03-26T02:05:36.173Z,9.15
2023-03-26T02:08:09.952Z,9.15
2023-03-26T02:10:42.008Z,9.11
2023-03-26T02:13:08.983Z,9.06
2023-03-26T02:15:36.197Z,9.09
2023-03-26T02:18:04.191Z,9.07
2023-03-26T02:20:31.119Z,9.05
2023-03-26T02:22:58.528Z,9.01
2023-03-26T02:25:25.159Z,8.95
2023-03-26T02:27:53.271Z,8.93
2023-03-26T02:30:26.599Z,8.89
2023-03-26T02:32:54.193Z,8.80
2023-03-26T02:35:22.352Z,8.83
2023-03-26T02:37:51.269Z,8.82
2023-03-26T02:40:25.168Z,8.76
2023-03-26T02:42:52.053Z,8.78
2023-03-26T02:45:18.799Z,8.77
2023-03-26T02:47:46.153Z,8.75
2023-03-26T02:50:12.960Z,8.76
2023-03-26T02:52:39.707Z,8.83
2023-03-26T02:55:07.414Z,8.84
2023-03-26T02:57:34.224Z,8.82
2023-03-26T03:00:09.145Z,8.78
2023-03-26T03:02:38.746Z,8.81
2023-03-26T03:05:06.030Z,8.78
2023-03-26T03:07:32.989Z,8.72
2023-03-26T03:10:02.502Z,8.66
2023-03-26T03:12:29.148Z,8.67
2023-03-26T03:14:56.208Z,8.64
2023-03-26T03:17:23.297Z,8.65
2023-03-26T03:19:49.933Z,8.54
2023-03-26T03:22:16.845Z,8.62
2023-03-26T03:24:43.947Z,8.61
2023-03-26T03:27:10.655Z,8.59
2023-03-26T03:29:37.966Z,8.53
2023-03-26T03:32:05.373Z,8.46
2023-03-26T03:34:32.056Z,8.30
2023-03-26T03:36:58.929Z,8.30
2023-03-26T03:39:25.595Z,8.27
2023-03-26T03:41:52.201Z,8.21
2023-03-26T03:44:19.136Z,8.14
2023-03-26T03:46:45.990Z,8.06
2023-03-26T03:49:12.745Z,7.94
2023-03-26T03:51:39.578Z,7.89
2023-03-26T03:54:06.829Z,7.77
2023-03-26T03:56:33.504Z,7.66
2023-03-26T03:59:00.656Z,7.57
2023-03-26T04:01:30.742Z,7.44
2023-03-26T04:03:58.817Z,7.39
2023-03-26T04:06:25.858Z,7.30
2023-03-26T04:08:52.801Z,7.26
2023-03-26T04:11:19.469Z,7.18
2023-03-26T04:13:46.244Z,7.12
2023-03-26T04:16:13.025Z,7.08
2023-03-26T04:18:40.057Z,7.01
2023-03-26T04:21:07.566Z,7.00
2023-03-26T04:23:34.829Z,6.93
2023-03-26T04:26:06.498Z,6.86
2023-03-26T04:28:42.453Z,6.77
2023-03-26T04:31:13.952Z,6.77
2023-03-26T04:33:40.854Z,6.68
2023-03-26T04:36:09.796Z,6.61
2023-03-26T04:38:49.416Z,6.61
2023-03-26T04:41:16.343Z,6.54
2023-03-26T04:43:47.444Z,6.46
2023-03-26T04:46:14.653Z,6.43
2023-03-26T04:48:41.657Z,6.39
2023-03-26T04:51:10.121Z,6.36
2023-03-26T04:53:37.360Z,6.32
2023-03-26T04:56:13.860Z,6.25
2023-03-26T04:58:40.699Z,6.19
2023-03-26T05:01:11.148Z,6.17
2023-03-26T05:03:40.895Z,6.12
2023-03-26T05:06:11.003Z,6.20
2023-03-26T05:08:37.687Z,6.18
2023-03-26T05:11:07.588Z,6.22
2023-03-26T05:13:34.398Z,6.20
2023-03-26T05:16:01.210Z,6.22
2023-03-26T05:18:28.046Z,6.22
2023-03-26T05:20:57.417Z,6.23
2023-03-26T05:23:24.343Z,6.26
2023-03-26T05:25:52.067Z,6.23
2023-03-26T05:28:24.863Z,6.25
2023-03-26T05:30:53.804Z,6.29
2023-03-26T05:33:22.425Z,6.38
2023-03-26T05:36:00.361Z,6.44
2023-03-26T05:38:29.082Z,6.47
2023-03-26T05:41:01.626Z,6.50
2023-03-26T05:43:29.057Z,6.58
2023-03-26T05:45:55.980Z,6.63
2023-03-26T05:48:23.859Z,6.80
2023-03-26T05:50:52.552Z,6.93
2023-03-26T05:53:21.529Z,7.06
2023-03-26T05:55:58.693Z,7.17
2023-03-26T05:58:30.650Z,7.31
2023-03-26T06:01:06.083Z,7.39
2023-03-26T06:03:33.329Z,7.49
2023-03-26T06:06:00.151Z,7.64
2023-03-26T06:08:27.279Z,7.68
2023-03-26T06:11:01.892Z,7.81
2023-03-26T06:13:28.972Z,7.82
2023-03-26T06:15:56.249Z,7.92
2023-03-26T06:18:23.118Z,7.82
2023-03-26T06:20:50.085Z,8.02
2023-03-26T06:23:17.396Z,8.06
2023-03-26T06:25:45.722Z,8.07
2023-03-26T06:28:12.976Z,8.12
2023-03-26T06:30:40.566Z,8.13
2023-03-26T06:33:07.650Z,8.23
2023-03-26T06:35:35.328Z,8.26
2023-03-26T06:38:02.226Z,8.37
2023-03-26T06:40:29.377Z,8.42
2023-03-26T06:43:09.173Z,8.51
2023-03-26T06:45:37.992Z,8.65
2023-03-26T06:48:05.808Z,8.78
2023-03-26T06:50:33.058Z,8.87
2023-03-26T06:53:00.391Z,8.98
2023-03-26T06:55:27.814Z,9.02
2023-03-26T06:57:56.022Z,9.16
2023-03-26T07:00:23.006Z,9.21
2023-03-26T07:02:50.661Z,9.32
2023-03-26T07:05:17.434Z,9.40
2023-03-26T07:07:46.345Z,9.43
2023-03-26T07:10:14.176Z,9.57
2023-03-26T07:12:42.482Z,9.73
2023-03-26T07:15:10.330Z,9.88
2023-03-26T07:17:38.319Z,10.02
2023-03-26T07:20:06.602Z,10.22
2023-03-26T07:22:33.933Z,10.42
2023-03-26T07:25:01.159Z,10.53
2023-03-26T07:27:36.125Z,10.79
2023-03-26T07:30:13.870Z,10.97
2023-03-26T07:32:55.862Z,11.09
2023-03-26T07:35:22.996Z,11.09
2023-03-26T07:38:11.578Z,11.04
2023-03-26T07:40:41.543Z,10.95
2023-03-26T07:43:31.553Z,10.88
2023-03-26T07:45:58.807Z,10.84
2023-03-26T07:48:29.655Z,10.75
2023-03-26T07:50:56.979Z,10.81
2023-03-26T07:53:24.705Z,10.85
2023-03-26T07:56:21.442Z,10.98
2023-03-26T07:59:03.667Z,11.17
2023-03-26T08:01:50.107Z,11.31
2023-03-26T08:04:23.231Z,11.39
2023-03-26T08:06:59.960Z,11.33
2023-03-26T08:09:51.791Z,11.30
2023-03-26T08:12:24.993Z,11.42
2023-03-26T08:15:09.819Z,11.61
2023-03-26T08:17:44.957Z,11.79
2023-03-26T08:20:45.856Z,11.95
2023-03-26T08:23:36.322Z,12.09
2023-03-26T08:26:30.793Z,12.26
2023-03-26T08:28:57.534Z,12.49
2023-03-26T08:31:39.322Z,12.67
2023-03-26T08:34:06.904Z,12.93
2023-03-26T08:36:34.244Z,13.02
2023-03-26T08:39:01.527Z,13.14
2023-03-26T08:41:43.089Z,13.16
2023-03-26T08:44:15.612Z,13.09
2023-03-26T08:47:16.397Z,12.93
2023-03-26T08:50:20.176Z,12.79
2023-03-26T08:53:11.209Z,12.76
2023-03-26T08:55:49.401Z,12.80
2023-03-26T08:58:21.690Z,12.75
2023-03-26T09:01:07.455Z,12.60
2023-03-26T09:04:10.316Z,12.48
2023-03-26T09:06:48.929Z,12.39
2023-03-26T09:09:57.587Z,12.22
2023-03-26T09:12:30.209Z,12.34
2023-03-26T09:15:24.437Z,12.50
2023-03-26T09:18:18.740Z,12.59
2023-03-26T09:21:04.104Z,12.74
2023-03-26T09:23:33.926Z,12.80
2023-03-26T09:26:19.418Z,12.81
2023-03-26T09:29:16.044Z,12.82
2023-03-26T09:31:45.871Z,12.81
2023-03-26T09:34:35.915Z,13.01
2023-03-26T09:37:20.516Z,13.26
2023-03-26T09:40:12.819Z,13.58
2023-03-26T09:42:55.140Z,13.68
2023-03-26T09:45:54.200Z,13.54
2023-03-26T09:48:46.018Z,13.60
2023-03-26T09:51:59.960Z,13.75
2023-03-26T09:55:19.740Z,13.84
2023-03-26T09:57:58.458Z,13.80
2023-03-26T10:00:53.322Z,13.76
2023-03-26T10:03:26.986Z,13.83
2023-03-26T10:05:59.848Z,13.88
2023-03-26T10:08:39.460Z,13.84
2023-03-26T10:11:21.694Z,13.87
2023-03-26T10:14:00.847Z,13.77
2023-03-26T10:17:15.523Z,13.69
2023-03-26T10:20:17.929Z,13.68
2023-03-26T10:23:06.798Z,13.67
2023-03-26T10:25:43.869Z,13.69
2023-03-26T10:28:45.587Z,13.61
2023-03-26T10:31:27.750Z,13.60
2023-03-26T10:34:01.388Z,13.40
2023-03-26T10:36:35.134Z,13.22
2023-03-26T10:39:38.939Z,13.12
2023-03-26T10:42:33.276Z,13.13
2023-03-26T10:45:24.380Z,13.09
2023-03-26T10:47:56.096Z,13.01
2023-03-26T10:50:46.964Z,12.90
2023-03-26T10:54:06.195Z,13.00
2023-03-26T10:56:36.636Z,13.00
2023-03-26T10:59:09.345Z,13.10
2023-03-26T11:01:42.159Z,13.29
2023-03-26T11:04:47.388Z,13.56
2023-03-26T11:07:34.617Z,13.82
2023-03-26T11:10:18.587Z,13.90
2023-03-26T11:12:52.891Z,13.83
2023-03-26T11:16:18.189Z,13.77
2023-03-26T11:18:58.355Z,13.61
2023-03-26T11:21:45.542Z,13.50
2023-03-26T11:24:48.566Z,13.67
2023-03-26T11:28:05.180Z,13.99
2023-03-26T11:31:00.170Z,14.38
2023-03-26T11:33:33.159Z,14.42
2023-03-26T11:36:10.341Z,14.57
2023-03-26T11:38:42.164Z,14.53
2023-03-26T11:41:16.590Z,14.49
2023-03-26T11:43:59.810Z,14.37
2023-03-26T11:46:27.292Z,14.25
2023-03-26T11:48:59.555Z,14.24
2023-03-26T11:51:38.261Z,14.25
2023-03-26T11:54:07.933Z,14.21
2023-03-26T11:57:05.387Z,14.00
2023-03-26T11:59:56.569Z,14.11
2023-03-26T12:02:38.301Z,14.13
2023-03-26T12:05:25.243Z,14.06
2023-03-26T12:08:05.029Z,13.96
2023-03-26T12:10:42.978Z,14.12
2023-03-26T12:13:37.390Z,14.35
2023-03-26T12:16:19.418Z,14.49
2023-03-26T12:18:57.706Z,14.48
2023-03-26T12:21:24.519Z,14.46
2023-03-26T12:24:04.446Z,14.42
2023-03-26T12:26:50.276Z,14.30
2023-03-26T12:29:19.022Z,14.27
2023-03-26T12:32:03.665Z,14.30
2023-03-26T12:34:36.137Z,14.33
2023-03-26T12:37:05.221Z,14.35
2023-03-26T12:40:07.795Z,14.52
2023-03-26T12:44:48.226Z,14.73
2023-03-26T12:45:23.121Z,14.89
2023-03-26T12:48:00.940Z,15.06
2023-03-26T12:50:43.161Z,15.10
2023-03-26T12:53:40.531Z,15.02
2023-03-26T12:56:39.869Z,15.04
2023-03-26T12:59:22.096Z,14.98
2023-03-26T13:02:09.310Z,14.85
2023-03-26T13:05:04.371Z,14.83
2023-03-26T13:08:10.666Z,14.82
2023-03-26T13:11:06.095Z,14.91
2023-03-26T13:13:38.598Z,15.01
2023-03-26T13:16:34.532Z,15.11
2023-03-26T13:19:31.215Z,15.25
2023-03-26T13:22:09.957Z,15.36
2023-03-26T13:25:03.542Z,15.42
2023-03-26T13:27:56.100Z,15.44
2023-03-26T13:30:58.369Z,15.26
2023-03-26T13:33:44.956Z,15.23
2023-03-26T13:36:40.848Z,15.27
2023-03-26T13:39:22.843Z,15.36
2023-03-26T13:42:05.887Z,15.40
2023-03-26T13:45:07.847Z,15.31
2023-03-26T13:47:38.700Z,15.18
2023-03-26T13:50:21.346Z,15.21
2023-03-26T13:52:58.558Z,15.26
2023-03-26T13:55:41.103Z,15.24
2023-03-26T13:58:11.175Z,15.22
2023-03-26T14:01:04.102Z,15.24
2023-03-26T14:03:46.361Z,15.27
2023-03-26T14:06:46.667Z,15.36
2023-03-26T14:09:26.341Z,15.36
2023-03-26T14:11:56.825Z,15.40
2023-03-26T14:14:46.839Z,15.42
2023-03-26T14:17:32.935Z,15.40
2023-03-26T14:20:35.284Z,15.37
2023-03-26T14:23:35.019Z,15.35
2023-03-26T14:26:08.756Z,15.34
2023-03-26T14:29:05.877Z,15.33
2023-03-26T14:31:44.830Z,15.33
2023-03-26T14:34:35.696Z,15.38
2023-03-26T14:37:43.964Z,15.38
2023-03-26T14:40:30.304Z,15.38
2023-03-26T14:43:18.772Z,15.36
2023-03-26T14:45:51.483Z,15.35
2023-03-26T14:48:37.043Z,15.29
2023-03-26T14:51:28.277Z,15.32
2023-03-26T14:54:02.723Z,15.30
2023-03-26T14:56:51.455Z,15.29
2023-03-26T14:59:36.578Z,15.31
2023-03-26T15:02:25.064Z,15.31
2023-03-26T15:04:54.773Z,15.32
2023-03-26T15:07:30.230Z,15.27
2023-03-26T15:10:15.467Z,15.18
2023-03-26T15:12:57.449Z,15.07
2023-03-26T15:15:54.598Z,15.01
2023-03-26T15:18:28.313Z,15.03
2023-03-26T15:21:33.288Z,15.02
2023-03-26T15:24:28.065Z,15.00
2023-03-26T15:27:22.871Z,14.96
2023-03-26T15:29:52.178Z,14.94
2023-03-26T15:32:31.532Z,14.93
2023-03-26T15:35:32.206Z,14.90
2023-03-26T15:38:11.187Z,14.85
2023-03-26T15:41:08.566Z,14.77
2023-03-26T15:46:38.536Z,14.65
2023-03-26T15:49:29.268Z,14.57
2023-03-26T15:52:05.595Z,14.55
2023-03-26T15:54:46.885Z,14.54
2023-03-26T15:57:28.799Z,14.45
2023-03-26T16:00:22.479Z,14.42
2023-03-26T16:03:34.591Z,14.37
2023-03-26T16:06:28.327Z,14.37
2023-03-26T16:09:10.710Z,14.32
2023-03-26T16:11:54.937Z,14.17
2023-03-26T16:14:43.067Z,14.17
2023-03-26T16:17:17.665Z,14.14
2023-03-26T16:19:52.027Z,14.10
2023-03-26T16:22:42.766Z,13.98
2023-03-26T16:25:32.699Z,13.87
2023-03-26T16:28:32.667Z,13.73
2023-03-26T16:31:10.790Z,13.58
2023-03-26T16:34:03.277Z,13.40
2023-03-26T16:36:34.748Z,13.21
2023-03-26T16:39:05.113Z,13.05
2023-03-26T16:41:56.425Z,12.87
2023-03-26T16:44:45.543Z,12.67
2023-03-26T16:47:50.457Z,12.51
2023-03-26T16:50:33.852Z,12.31
2023-03-26T16:53:22.215Z,12.13
2023-03-26T16:55:58.926Z,11.99
2023-03-26T16:58:27.802Z,11.81
2023-03-26T17:01:06.680Z,11.65
2023-03-26T17:03:43.710Z,11.50
2023-03-26T17:06:28.486Z,11.31
2023-03-26T17:09:20.836Z,11.18
2023-03-26T17:11:55.104Z,11.02
2023-03-26T17:14:34.029Z,10.88
2023-03-26T17:17:10.219Z,10.73
2023-03-26T17:20:08.553Z,10.60
2023-03-26T17:22:52.097Z,10.45
2023-03-26T17:25:28.896Z,10.30
2023-03-26T17:28:26.624Z,10.24
2023-03-26T17:31:18.548Z,10.09
2023-03-26T17:33:46.512Z,9.97
2023-03-26T17:36:13.256Z,9.90
2023-03-26T17:38:40.001Z,9.73
2023-03-26T17:41:15.796Z,9.76
2023-03-26T17:43:47.507Z,9.65
2023-03-26T17:46:35.104Z,9.57
2023-03-26T17:49:25.661Z,9.40
2023-03-26T17:52:01.171Z,9.42
2023-03-26T17:54:49.254Z,9.34
2023-03-26T17:57:42.089Z,9.32
2023-03-26T18:00:18.463Z,9.27
2023-03-26T18:02:54.186Z,9.22
2023-03-26T18:05:22.460Z,9.14
2023-03-26T18:08:20.962Z,9.16
2023-03-26T18:11:08.595Z,9.15
2023-03-26T18:13:41.576Z,9.14
2023-03-26T18:16:16.182Z,9.14
2023-03-26T18:18:52.592Z,9.15
2023-03-26T18:21:45.107Z,9.11
2023-03-26T18:24:18.292Z,9.13
2023-03-26T18:26:53.872Z,9.12
2023-03-26T18:29:28.673Z,9.02
2023-03-26T18:32:03.670Z,9.06
2023-03-26T18:34:33.232Z,9.10
2023-03-26T18:37:01.162Z,9.14
2023-03-26T18:39:27.991Z,9.18
2023-03-26T18:41:55.036Z,9.18
2023-03-26T18:44:22.032Z,9.24
2023-03-26T18:46:48.851Z,9.25
2023-03-26T18:49:17.320Z,9.32
2023-03-26T18:51:56.084Z,9.30
2023-03-26T18:54:25.298Z,9.23
2023-03-26T18:56:52.800Z,9.30
2023-03-26T18:59:28.302Z,9.33
2023-03-26T19:01:57.848Z,9.35
2023-03-26T19:04:26.859Z,9.35
2023-03-26T19:06:55.276Z,9.35
2023-03-26T19:09:31.707Z,9.31
2023-03-26T19:12:06.587Z,9.28
2023-03-26T19:14:36.939Z,9.21
2023-03-26T19:17:06.983Z,9.12
2023-03-26T19:19:37.017Z,9.08
2023-03-26T19:22:11.459Z,9.02
2023-03-26T19:24:40.578Z,8.92
2023-03-26T19:27:07.492Z,8.85
2023-03-26T19:29:36.254Z,8.77
2023-03-26T19:32:20.319Z,8.68
2023-03-26T19:34:48.255Z,8.59
2023-03-26T19:37:21.768Z,8.40
2023-03-26T19:40:01.588Z,8.34
2023-03-26T19:42:43.587Z,8.26
2023-03-26T19:45:18.908Z,8.11
2023-03-26T19:47:50.425Z,8.02
2023-03-26T19:50:30.219Z,7.97
2023-03-26T19:53:17.966Z,7.87
2023-03-26T19:56:11.843Z,7.62
2023-03-26T19:58:39.551Z,7.68
2023-03-26T20:01:07.174Z,7.57
2023-03-26T20:03:42.760Z,7.52
2023-03-26T20:06:42.574Z,7.41
2023-03-26T20:09:14.196Z,7.37
2023-03-26T20:11:41.326Z,7.27
2023-03-26T20:14:13.920Z,7.18
2023-03-26T20:16:42.195Z,7.14
2023-03-26T20:19:11.135Z,7.12
2023-03-26T20:21:41.184Z,7.06
2023-03-26T20:24:16.860Z,7.05
2023-03-26T20:26:44.464Z,6.97
2023-03-26T20:29:11.719Z,6.96
2023-03-26T20:31:40.984Z,6.95
2023-03-26T20:34:24.858Z,6.86
2023-03-26T20:37:01.338Z,6.80
2023-03-26T20:39:28.346Z,6.72
2023-03-26T20:41:56.413Z,6.70
2023-03-26T20:44:23.630Z,6.64
2023-03-26T20:46:50.845Z,6.62
2023-03-26T20:49:18.392Z,6.61
2023-03-26T20:51:45.775Z,6.59
2023-03-26T20:54:17.740Z,6.47
2023-03-26T20:56:45.709Z,6.44
2023-03-26T20:59:17.992Z,6.40
2023-03-26T21:01:47.494Z,6.36
2023-03-26T21:04:16.127Z,6.31
2023-03-26T21:06:43.676Z,6.22
2023-03-26T21:09:17.640Z,6.20
2023-03-26T21:11:52.728Z,6.10
2023-03-26T21:14:25.708Z,6.07
2023-03-26T21:16:52.696Z,5.97
2023-03-26T21:19:20.444Z,5.93
2023-03-26T21:22:09.153Z,5.89
2023-03-26T21:24:42.092Z,5.81
2023-03-26T21:27:39.398Z,5.69
2023-03-26T21:30:13.902Z,5.55
2023-03-26T21:32:41.579Z,5.52
2023-03-26T21:35:09.049Z,5.39
2023-03-26T21:37:37.671Z,5.36
2023-03-26T21:40:14.711Z,5.36
2023-03-26T21:42:46.445Z,5.32
2023-03-26T21:45:14.062Z,5.34
2023-03-26T21:47:41.884Z,5.31
2023-03-26T21:50:10.400Z,5.32
2023-03-26T21:52:48.416Z,5.26
2023-03-26T21:55:23.201Z,5.27
2023-03-26T21:58:12.562Z,5.21
2023-03-26T22:01:16.893Z,5.16
2023-03-26T22:04:02.146Z,5.11
2023-03-26T22:06:43.115Z,5.04
2023-03-26T22:09:12.795Z,4.98
2023-03-26T22:11:41.552Z,4.88
2023-03-26T22:14:09.034Z,4.85
2023-03-26T22:16:35.761Z,4.80
2023-03-26T22:19:02.540Z,4.72
2023-03-26T22:21:29.918Z,4.69
2023-03-26T22:23:56.661Z,4.63
2023-03-26T22:26:24.474Z,4.60
2023-03-26T22:28:51.883Z,4.54
2023-03-26T22:31:19.256Z,4.51
2023-03-26T22:33:45.876Z,4.52
2023-03-26T22:36:22.731Z,4.46
2023-03-26T22:38:53.748Z,4.39
2023-03-26T22:41:21.813Z,4.31
2023-03-26T22:43:52.025Z,4.32
2023-03-26T22:46:19.507Z,4.29
2023-03-26T22:48:48.321Z,4.25
2023-03-26T22:51:15.610Z,4.24
2023-03-26T22:53:43.566Z,4.17
2023-03-26T22:56:11.847Z,4.19
2023-03-26T22:58:38.546Z,4.19
2023-03-26T23:01:11.934Z,4.13
2023-03-26T23:03:39.688Z,4.18
2023-03-26T23:06:09.788Z,4.05
2023-03-26T23:08:38.162Z,4.15
2023-03-26T23:11:15.117Z,4.14
2023-03-26T23:13:42.763Z,4.08
2023-03-26T23:16:11.248Z,4.07
2023-03-26T23:18:39.323Z,4.02
2023-03-26T23:21:12.138Z,3.86
2023-03-26T23:23:40.014Z,3.90
2023-03-26T23:26:07.214Z,3.85
2023-03-26T23:28:35.113Z,3.87
2023-03-26T23:31:06.878Z,3.87
2023-03-26T23:33:36.442Z,3.80
2023-03-26T23:36:09.057Z,3.79
2023-03-26T23:38:43.711Z,3.74
2023-03-26T23:41:15.315Z,3.68
2023-03-26T23:43:54.707Z,3.60
2023-03-26T23:46:33.158Z,3.64
2023-03-26T23:49:02.714Z,3.67
2023-03-26T23:51:32.499Z,3.67
2023-03-26T23:54:00.528Z,3.74
2023-03-26T23:56:30.295Z,3.77
2023-03-26T23:58:57.032Z,3.72
